sensor_id;sensor_type;location;lat;lon;timestamp;pressure;altitude;pressure_sealevel;temperature
15845;BMP180;50807;52.436;13.346;2023-03-01T00:00:08;102664.00;;;6.20
15845;BMP180;50807;52.436;13.346;2023-03-01T00:00:40;102674.00;;;6.20
15845;BMP180;50807;52.436;13.346;2023-03-01T00:01:15;102678.00;;;6.10
15845;BMP180;50807;52.436;13.346;2023-03-01T00:01:46;102652.00;;;6.20
15845;BMP180;50807;52.436;13.346;2023-03-01T00:02:17;102668.00;;;6.20
15845;BMP180;50807;52.436;13.346;2023-03-01T00:02:49;102672.00;;;6.20
15845;BMP180;50807;52.436;13.346;2023-03-01T00:03:20;102669.00;;;6.20
15845;BMP180;50807;52.436;13.346;2023-03-01T00:03:51;102674.00;;;6.20
15845;BMP180;50807;52.436;13.346;2023-03-01T00:04:23;102665.00;;;6.10
15845;BMP180;50807;52.436;13.346;2023-03-01T00:04:54;102674.00;;;6.10
15845;BMP180;50807;52.436;13.346;2023-03-01T00:05:25;102674.00;;;6.10
15845;BMP180;50807;52.436;13.346;2023-03-01T00:05:57;102671.00;;;6.20
15845;BMP180;50807;52.436;13.346;2023-03-01T00:06:28;102668.00;;;6.10
15845;BMP180;50807;52.436;13.346;2023-03-01T00:06:59;102676.00;;;6.10
15845;BMP180;50807;52.436;13.346;2023-03-01T00:07:30;102669.00;;;6.10
15845;BMP180;50807;52.436;13.346;2023-03-01T00:08:01;102671.00;;;6.10
15845;BMP180;50807;52.436;13.346;2023-03-01T00:08:33;102671.00;;;6.10
15845;BMP180;50807;52.436;13.346;2023-03-01T00:09:07;102659.00;;;6.10
15845;BMP180;50807;52.436;13.346;2023-03-01T00:09:37;102666.00;;;6.10
15845;BMP180;50807;52.436;13.346;2023-03-01T00:10:10;102673.00;;;6.10
15845;BMP180;50807;52.436;13.346;2023-03-01T00:10:42;102673.00;;;6.10
15845;BMP180;50807;52.436;13.346;2023-03-01T00:11:17;102664.00;;;6.10
15845;BMP180;50807;52.436;13.346;2023-03-01T00:11:49;102665.00;;;6.10
15845;BMP180;50807;52.436;13.346;2023-03-01T00:12:20;102667.00;;;6.10
15845;BMP180;50807;52.436;13.346;2023-03-01T00:12:51;102665.00;;;6.10
15845;BMP180;50807;52.436;13.346;2023-03-01T00:13:22;102645.00;;;6.10
15845;BMP180;50807;52.436;13.346;2023-03-01T00:13:57;102657.00;;;6.00
15845;BMP180;50807;52.436;13.346;2023-03-01T00:14:29;102649.00;;;6.00
15845;BMP180;50807;52.436;13.346;2023-03-01T00:14:59;102653.00;;;6.00
15845;BMP180;50807;52.436;13.346;2023-03-01T00:15:31;102659.00;;;6.00
15845;BMP180;50807;52.436;13.346;2023-03-01T00:16:03;102652.00;;;6.00
15845;BMP180;50807;52.436;13.346;2023-03-01T00:16:38;102652.00;;;6.00
15845;BMP180;50807;52.436;13.346;2023-03-01T00:17:10;102644.00;;;6.00
15845;BMP180;50807;52.436;13.346;2023-03-01T00:17:41;102652.00;;;6.00
15845;BMP180;50807;52.436;13.346;2023-03-01T00:18:12;102653.00;;;6.00
15845;BMP180;50807;52.436;13.346;2023-03-01T00:18:44;102652.00;;;6.00
15845;BMP180;50807;52.436;13.346;2023-03-01T00:19:18;102650.00;;;6.00
15845;BMP180;50807;52.436;13.346;2023-03-01T00:19:49;102652.00;;;6.00
15845;BMP180;50807;52.436;13.346;2023-03-01T00:20:21;102656.00;;;6.00
15845;BMP180;50807;52.436;13.346;2023-03-01T00:20:52;102647.00;;;6.00
15845;BMP180;50807;52.436;13.346;2023-03-01T00:21:24;102649.00;;;5.90
15845;BMP180;50807;52.436;13.346;2023-03-01T00:21:55;102651.00;;;6.00
15845;BMP180;50807;52.436;13.346;2023-03-01T00:22:27;102649.00;;;5.90
15845;BMP180;50807;52.436;13.346;2023-03-01T00:22:59;102642.00;;;5.90
15845;BMP180;50807;52.436;13.346;2023-03-01T00:23:29;102650.00;;;5.90
15845;BMP180;50807;52.436;13.346;2023-03-01T00:24:02;102644.00;;;5.90
15845;BMP180;50807;52.436;13.346;2023-03-01T00:24:34;102645.00;;;5.90
15845;BMP180;50807;52.436;13.346;2023-03-01T00:25:06;102643.00;;;5.90
15845;BMP180;50807;52.436;13.346;2023-03-01T00:25:41;102648.00;;;5.90
15845;BMP180;50807;52.436;13.346;2023-03-01T00:26:13;102652.00;;;5.90
15845;BMP180;50807;52.436;13.346;2023-03-01T00:26:44;102654.00;;;5.90
15845;BMP180;50807;52.436;13.346;2023-03-01T00:27:17;102644.00;;;5.90
15845;BMP180;50807;52.436;13.346;2023-03-01T00:27:47;102648.00;;;5.90
15845;BMP180;50807;52.436;13.346;2023-03-01T00:28:20;102646.00;;;5.90
15845;BMP180;50807;52.436;13.346;2023-03-01T00:28:52;102653.00;;;5.90
15845;BMP180;50807;52.436;13.346;2023-03-01T00:29:24;102644.00;;;5.90
15845;BMP180;50807;52.436;13.346;2023-03-01T00:29:55;102646.00;;;5.90
15845;BMP180;50807;52.436;13.346;2023-03-01T00:30:26;102639.00;;;5.90
15845;BMP180;50807;52.436;13.346;2023-03-01T00:31:03;102642.00;;;5.80
15845;BMP180;50807;52.436;13.346;2023-03-01T00:31:35;102648.00;;;5.80
15845;BMP180;50807;52.436;13.346;2023-03-01T00:32:06;102643.00;;;5.90
15845;BMP180;50807;52.436;13.346;2023-03-01T00:32:37;102646.00;;;5.80
15845;BMP180;50807;52.436;13.346;2023-03-01T00:33:08;102652.00;;;5.90
15845;BMP180;50807;52.436;13.346;2023-03-01T00:33:39;102652.00;;;5.80
15845;BMP180;50807;52.436;13.346;2023-03-01T00:34:11;102647.00;;;5.80
15845;BMP180;50807;52.436;13.346;2023-03-01T00:34:42;102647.00;;;5.80
15845;BMP180;50807;52.436;13.346;2023-03-01T00:35:13;102651.00;;;5.80
15845;BMP180;50807;52.436;13.346;2023-03-01T00:35:44;102650.00;;;5.80
15845;BMP180;50807;52.436;13.346;2023-03-01T00:36:15;102647.00;;;5.80
15845;BMP180;50807;52.436;13.346;2023-03-01T00:36:46;102649.00;;;5.80
15845;BMP180;50807;52.436;13.346;2023-03-01T00:37:18;102651.00;;;5.80
15845;BMP180;50807;52.436;13.346;2023-03-01T00:37:49;102639.00;;;5.80
15845;BMP180;50807;52.436;13.346;2023-03-01T00:38:28;102643.00;;;5.80
15845;BMP180;50807;52.436;13.346;2023-03-01T00:39:00;102642.00;;;5.80
15845;BMP180;50807;52.436;13.346;2023-03-01T00:39:33;102639.00;;;5.80
15845;BMP180;50807;52.436;13.346;2023-03-01T00:40:06;102625.00;;;5.70
15845;BMP180;50807;52.436;13.346;2023-03-01T00:40:38;102619.00;;;5.80
15845;BMP180;50807;52.436;13.346;2023-03-01T00:41:12;102635.00;;;5.70
15845;BMP180;50807;52.436;13.346;2023-03-01T00:41:43;102641.00;;;5.70
15845;BMP180;50807;52.436;13.346;2023-03-01T00:42:16;102628.00;;;5.70
15845;BMP180;50807;52.436;13.346;2023-03-01T00:42:47;102630.00;;;5.70
15845;BMP180;50807;52.436;13.346;2023-03-01T00:43:18;102629.00;;;5.70
15845;BMP180;50807;52.436;13.346;2023-03-01T00:43:50;102641.00;;;5.70
15845;BMP180;50807;52.436;13.346;2023-03-01T00:44:22;102628.00;;;5.70
15845;BMP180;50807;52.436;13.346;2023-03-01T00:44:52;102628.00;;;5.70
15845;BMP180;50807;52.436;13.346;2023-03-01T00:45:24;102634.00;;;5.70
15845;BMP180;50807;52.436;13.346;2023-03-01T00:46:00;102640.00;;;5.70
15845;BMP180;50807;52.436;13.346;2023-03-01T00:46:31;102634.00;;;5.70
15845;BMP180;50807;52.436;13.346;2023-03-01T00:47:02;102635.00;;;5.70
15845;BMP180;50807;52.436;13.346;2023-03-01T00:47:34;102630.00;;;5.70
15845;BMP180;50807;52.436;13.346;2023-03-01T00:48:05;102641.00;;;5.70
15845;BMP180;50807;52.436;13.346;2023-03-01T00:48:37;102647.00;;;5.70
15845;BMP180;50807;52.436;13.346;2023-03-01T00:49:09;102641.00;;;5.70
15845;BMP180;50807;52.436;13.346;2023-03-01T00:49:40;102630.00;;;5.70
15845;BMP180;50807;52.436;13.346;2023-03-01T00:50:12;102628.00;;;5.70
15845;BMP180;50807;52.436;13.346;2023-03-01T00:50:43;102635.00;;;5.70
15845;BMP180;50807;52.436;13.346;2023-03-01T00:51:17;102634.00;;;5.60
15845;BMP180;50807;52.436;13.346;2023-03-01T00:51:48;102633.00;;;5.60
15845;BMP180;50807;52.436;13.346;2023-03-01T00:52:20;102632.00;;;5.60
15845;BMP180;50807;52.436;13.346;2023-03-01T00:52:53;102641.00;;;5.60
15845;BMP180;50807;52.436;13.346;2023-03-01T00:53:24;102633.00;;;5.60
15845;BMP180;50807;52.436;13.346;2023-03-01T00:53:59;102628.00;;;5.60
15845;BMP180;50807;52.436;13.346;2023-03-01T00:54:30;102635.00;;;5.60
15845;BMP180;50807;52.436;13.346;2023-03-01T00:55:04;102629.00;;;5.60
15845;BMP180;50807;52.436;13.346;2023-03-01T00:55:36;102639.00;;;5.50
15845;BMP180;50807;52.436;13.346;2023-03-01T00:56:09;102627.00;;;5.60
15845;BMP180;50807;52.436;13.346;2023-03-01T00:56:41;102624.00;;;5.50
15845;BMP180;50807;52.436;13.346;2023-03-01T00:57:13;102627.00;;;5.60
15845;BMP180;50807;52.436;13.346;2023-03-01T00:57:43;102632.00;;;5.60
15845;BMP180;50807;52.436;13.346;2023-03-01T00:58:14;102630.00;;;5.60
15845;BMP180;50807;52.436;13.346;2023-03-01T00:58:45;102631.00;;;5.60
15845;BMP180;50807;52.436;13.346;2023-03-01T00:59:17;102630.00;;;5.60
15845;BMP180;50807;52.436;13.346;2023-03-01T00:59:47;102630.00;;;5.60
15845;BMP180;50807;52.436;13.346;2023-03-01T01:00:19;102624.00;;;5.60
15845;BMP180;50807;52.436;13.346;2023-03-01T01:00:51;102628.00;;;5.50
15845;BMP180;50807;52.436;13.346;2023-03-01T01:01:26;102629.00;;;5.50
15845;BMP180;50807;52.436;13.346;2023-03-01T01:02:00;102624.00;;;5.50
15845;BMP180;50807;52.436;13.346;2023-03-01T01:02:33;102630.00;;;5.50
15845;BMP180;50807;52.436;13.346;2023-03-01T01:03:04;102623.00;;;5.50
15845;BMP180;50807;52.436;13.346;2023-03-01T01:03:35;102624.00;;;5.50
15845;BMP180;50807;52.436;13.346;2023-03-01T01:04:09;102628.00;;;5.40
15845;BMP180;50807;52.436;13.346;2023-03-01T01:04:41;102632.00;;;5.50
15845;BMP180;50807;52.436;13.346;2023-03-01T01:05:13;102627.00;;;5.50
15845;BMP180;50807;52.436;13.346;2023-03-01T01:05:44;102632.00;;;5.50
15845;BMP180;50807;52.436;13.346;2023-03-01T01:06:18;102613.00;;;5.50
15845;BMP180;50807;52.436;13.346;2023-03-01T01:06:49;102627.00;;;5.50
15845;BMP180;50807;52.436;13.346;2023-03-01T01:07:20;102631.00;;;5.50
15845;BMP180;50807;52.436;13.346;2023-03-01T01:07:52;102620.00;;;5.50
15845;BMP180;50807;52.436;13.346;2023-03-01T01:08:23;102629.00;;;5.50
15845;BMP180;50807;52.436;13.346;2023-03-01T01:08:55;102623.00;;;5.50
15845;BMP180;50807;52.436;13.346;2023-03-01T01:09:27;102627.00;;;5.50
15845;BMP180;50807;52.436;13.346;2023-03-01T01:09:58;102622.00;;;5.50
15845;BMP180;50807;52.436;13.346;2023-03-01T01:10:30;102627.00;;;5.50
15845;BMP180;50807;52.436;13.346;2023-03-01T01:11:02;102616.00;;;5.50
15845;BMP180;50807;52.436;13.346;2023-03-01T01:11:33;102612.00;;;5.50
15845;BMP180;50807;52.436;13.346;2023-03-01T01:12:06;102612.00;;;5.50
15845;BMP180;50807;52.436;13.346;2023-03-01T01:12:38;102617.00;;;5.50
15845;BMP180;50807;52.436;13.346;2023-03-01T01:13:09;102620.00;;;5.50
15845;BMP180;50807;52.436;13.346;2023-03-01T01:13:40;102613.00;;;5.40
15845;BMP180;50807;52.436;13.346;2023-03-01T01:14:13;102615.00;;;5.40
15845;BMP180;50807;52.436;13.346;2023-03-01T01:14:44;102620.00;;;5.40
15845;BMP180;50807;52.436;13.346;2023-03-01T01:15:15;102614.00;;;5.40
15845;BMP180;50807;52.436;13.346;2023-03-01T01:15:47;102614.00;;;5.40
15845;BMP180;50807;52.436;13.346;2023-03-01T01:16:21;102627.00;;;5.40
15845;BMP180;50807;52.436;13.346;2023-03-01T01:16:52;102624.00;;;5.40
15845;BMP180;50807;52.436;13.346;2023-03-01T01:17:24;102616.00;;;5.40
15845;BMP180;50807;52.436;13.346;2023-03-01T01:17:55;102620.00;;;5.40
15845;BMP180;50807;52.436;13.346;2023-03-01T01:18:26;102591.00;;;5.40
15845;BMP180;50807;52.436;13.346;2023-03-01T01:18:57;102625.00;;;5.40
15845;BMP180;50807;52.436;13.346;2023-03-01T01:19:29;102618.00;;;5.40
15845;BMP180;50807;52.436;13.346;2023-03-01T01:20:00;102617.00;;;5.40
15845;BMP180;50807;52.436;13.346;2023-03-01T01:20:31;102615.00;;;5.40
15845;BMP180;50807;52.436;13.346;2023-03-01T01:21:06;102614.00;;;5.30
15845;BMP180;50807;52.436;13.346;2023-03-01T01:21:37;102608.00;;;5.40
15845;BMP180;50807;52.436;13.346;2023-03-01T01:22:08;102615.00;;;5.40
15845;BMP180;50807;52.436;13.346;2023-03-01T01:22:40;102610.00;;;5.30
15845;BMP180;50807;52.436;13.346;2023-03-01T01:23:11;102607.00;;;5.40
15845;BMP180;50807;52.436;13.346;2023-03-01T01:23:44;102601.00;;;5.30
15845;BMP180;50807;52.436;13.346;2023-03-01T01:24:16;102600.00;;;5.30
15845;BMP180;50807;52.436;13.346;2023-03-01T01:24:47;102607.00;;;5.30
15845;BMP180;50807;52.436;13.346;2023-03-01T01:25:18;102604.00;;;5.30
15845;BMP180;50807;52.436;13.346;2023-03-01T01:25:51;102603.00;;;5.30
15845;BMP180;50807;52.436;13.346;2023-03-01T01:26:25;102604.00;;;5.30
15845;BMP180;50807;52.436;13.346;2023-03-01T01:26:56;102595.00;;;5.30
15845;BMP180;50807;52.436;13.346;2023-03-01T01:27:30;102583.00;;;5.30
15845;BMP180;50807;52.436;13.346;2023-03-01T01:28:00;102601.00;;;5.30
15845;BMP180;50807;52.436;13.346;2023-03-01T01:28:31;102602.00;;;5.30
15845;BMP180;50807;52.436;13.346;2023-03-01T01:29:04;102609.00;;;5.30
15845;BMP180;50807;52.436;13.346;2023-03-01T01:29:36;102592.00;;;5.30
15845;BMP180;50807;52.436;13.346;2023-03-01T01:30:09;102612.00;;;5.30
15845;BMP180;50807;52.436;13.346;2023-03-01T01:30:40;102601.00;;;5.30
15845;BMP180;50807;52.436;13.346;2023-03-01T01:31:11;102600.00;;;5.30
15845;BMP180;50807;52.436;13.346;2023-03-01T01:31:43;102603.00;;;5.30
15845;BMP180;50807;52.436;13.346;2023-03-01T01:32:14;102597.00;;;5.20
15845;BMP180;50807;52.436;13.346;2023-03-01T01:32:45;102605.00;;;5.20
15845;BMP180;50807;52.436;13.346;2023-03-01T01:33:16;102606.00;;;5.20
15845;BMP180;50807;52.436;13.346;2023-03-01T01:33:47;102612.00;;;5.20
15845;BMP180;50807;52.436;13.346;2023-03-01T01:34:21;102589.00;;;5.20
15845;BMP180;50807;52.436;13.346;2023-03-01T01:34:52;102585.00;;;5.20
15845;BMP180;50807;52.436;13.346;2023-03-01T01:35:23;102594.00;;;5.20
15845;BMP180;50807;52.436;13.346;2023-03-01T01:35:55;102582.00;;;5.20
15845;BMP180;50807;52.436;13.346;2023-03-01T01:36:26;102590.00;;;5.20
15845;BMP180;50807;52.436;13.346;2023-03-01T01:36:56;102590.00;;;5.20
15845;BMP180;50807;52.436;13.346;2023-03-01T01:37:34;102586.00;;;5.20
15845;BMP180;50807;52.436;13.346;2023-03-01T01:38:05;102591.00;;;5.20
15845;BMP180;50807;52.436;13.346;2023-03-01T01:38:37;102593.00;;;5.10
15845;BMP180;50807;52.436;13.346;2023-03-01T01:39:09;102587.00;;;5.20
15845;BMP180;50807;52.436;13.346;2023-03-01T01:39:43;102596.00;;;5.20
15845;BMP180;50807;52.436;13.346;2023-03-01T01:40:14;102597.00;;;5.20
15845;BMP180;50807;52.436;13.346;2023-03-01T01:40:46;102593.00;;;5.20
15845;BMP180;50807;52.436;13.346;2023-03-01T01:41:19;102590.00;;;5.20
15845;BMP180;50807;52.436;13.346;2023-03-01T01:41:51;102588.00;;;5.20
15845;BMP180;50807;52.436;13.346;2023-03-01T01:42:22;102583.00;;;5.20
15845;BMP180;50807;52.436;13.346;2023-03-01T01:42:53;102585.00;;;5.20
15845;BMP180;50807;52.436;13.346;2023-03-01T01:43:27;102585.00;;;5.20
15845;BMP180;50807;52.436;13.346;2023-03-01T01:44:17;102589.00;;;5.00
15845;BMP180;50807;52.436;13.346;2023-03-01T01:44:48;102581.00;;;5.00
15845;BMP180;50807;52.436;13.346;2023-03-01T01:45:41;102583.00;;;5.00
15845;BMP180;50807;52.436;13.346;2023-03-01T01:46:22;102590.00;;;4.90
15845;BMP180;50807;52.436;13.346;2023-03-01T01:46:59;102583.00;;;4.90
15845;BMP180;50807;52.436;13.346;2023-03-01T01:47:32;102584.00;;;5.00
15845;BMP180;50807;52.436;13.346;2023-03-01T01:48:09;102583.00;;;4.90
15845;BMP180;50807;52.436;13.346;2023-03-01T01:48:48;102574.00;;;4.90
15845;BMP180;50807;52.436;13.346;2023-03-01T01:49:29;102585.00;;;4.90
15845;BMP180;50807;52.436;13.346;2023-03-01T01:50:01;102588.00;;;4.90
15845;BMP180;50807;52.436;13.346;2023-03-01T01:50:35;102590.00;;;4.90
15845;BMP180;50807;52.436;13.346;2023-03-01T01:51:15;102586.00;;;4.90
15845;BMP180;50807;52.436;13.346;2023-03-01T01:51:51;102597.00;;;4.90
15845;BMP180;50807;52.436;13.346;2023-03-01T01:52:27;102588.00;;;4.90
15845;BMP180;50807;52.436;13.346;2023-03-01T01:53:01;102592.00;;;4.90
15845;BMP180;50807;52.436;13.346;2023-03-01T01:53:32;102587.00;;;5.00
15845;BMP180;50807;52.436;13.346;2023-03-01T01:54:06;102569.00;;;4.90
15845;BMP180;50807;52.436;13.346;2023-03-01T01:54:45;102588.00;;;4.90
15845;BMP180;50807;52.436;13.346;2023-03-01T01:55:21;102586.00;;;4.90
15845;BMP180;50807;52.436;13.346;2023-03-01T01:55:58;102590.00;;;4.90
15845;BMP180;50807;52.436;13.346;2023-03-01T01:56:32;102595.00;;;4.90
15845;BMP180;50807;52.436;13.346;2023-03-01T01:57:09;102593.00;;;4.90
15845;BMP180;50807;52.436;13.346;2023-03-01T01:57:45;102588.00;;;4.80
15845;BMP180;50807;52.436;13.346;2023-03-01T01:58:20;102597.00;;;4.80
15845;BMP180;50807;52.436;13.346;2023-03-01T01:58:52;102597.00;;;4.90
15845;BMP180;50807;52.436;13.346;2023-03-01T01:59:24;102588.00;;;4.90
15845;BMP180;50807;52.436;13.346;2023-03-01T02:00:00;102600.00;;;4.80
15845;BMP180;50807;52.436;13.346;2023-03-01T02:00:32;102596.00;;;4.80
15845;BMP180;50807;52.436;13.346;2023-03-01T02:01:05;102595.00;;;4.90
15845;BMP180;50807;52.436;13.346;2023-03-01T02:01:37;102600.00;;;4.90
15845;BMP180;50807;52.436;13.346;2023-03-01T02:02:08;102594.00;;;4.90
15845;BMP180;50807;52.436;13.346;2023-03-01T02:02:40;102596.00;;;4.90
15845;BMP180;50807;52.436;13.346;2023-03-01T02:03:19;102599.00;;;4.80
15845;BMP180;50807;52.436;13.346;2023-03-01T02:03:52;102589.00;;;4.80
15845;BMP180;50807;52.436;13.346;2023-03-01T02:04:23;102581.00;;;4.90
15845;BMP180;50807;52.436;13.346;2023-03-01T02:05:05;102601.00;;;4.80
15845;BMP180;50807;52.436;13.346;2023-03-01T02:05:47;102598.00;;;4.70
15845;BMP180;50807;52.436;13.346;2023-03-01T02:06:29;102602.00;;;4.70
15845;BMP180;50807;52.436;13.346;2023-03-01T02:07:06;102597.00;;;4.70
15845;BMP180;50807;52.436;13.346;2023-03-01T02:07:39;102596.00;;;4.70
15845;BMP180;50807;52.436;13.346;2023-03-01T02:08:14;102586.00;;;4.70
15845;BMP180;50807;52.436;13.346;2023-03-01T02:08:47;102599.00;;;4.70
15845;BMP180;50807;52.436;13.346;2023-03-01T02:09:21;102598.00;;;4.70
15845;BMP180;50807;52.436;13.346;2023-03-01T02:09:54;102602.00;;;4.70
15845;BMP180;50807;52.436;13.346;2023-03-01T02:10:27;102590.00;;;4.70
15845;BMP180;50807;52.436;13.346;2023-03-01T02:11:00;102592.00;;;4.70
15845;BMP180;50807;52.436;13.346;2023-03-01T02:11:36;102599.00;;;4.70
15845;BMP180;50807;52.436;13.346;2023-03-01T02:12:08;102596.00;;;4.70
15845;BMP180;50807;52.436;13.346;2023-03-01T02:12:39;102599.00;;;4.70
15845;BMP180;50807;52.436;13.346;2023-03-01T02:13:12;102597.00;;;4.70
15845;BMP180;50807;52.436;13.346;2023-03-01T02:13:47;102595.00;;;4.70
15845;BMP180;50807;52.436;13.346;2023-03-01T02:14:18;102586.00;;;4.70
15845;BMP180;50807;52.436;13.346;2023-03-01T02:14:50;102586.00;;;4.70
15845;BMP180;50807;52.436;13.346;2023-03-01T02:15:21;102594.00;;;4.70
15845;BMP180;50807;52.436;13.346;2023-03-01T02:15:52;102594.00;;;4.70
15845;BMP180;50807;52.436;13.346;2023-03-01T02:16:26;102603.00;;;4.70
15845;BMP180;50807;52.436;13.346;2023-03-01T02:16:57;102604.00;;;4.80
15845;BMP180;50807;52.436;13.346;2023-03-01T02:17:28;102601.00;;;4.70
15845;BMP180;50807;52.436;13.346;2023-03-01T02:18:01;102583.00;;;4.70
15845;BMP180;50807;52.436;13.346;2023-03-01T02:18:33;102592.00;;;4.70
15845;BMP180;50807;52.436;13.346;2023-03-01T02:19:05;102585.00;;;4.70
15845;BMP180;50807;52.436;13.346;2023-03-01T02:19:52;102596.00;;;4.60
15845;BMP180;50807;52.436;13.346;2023-03-01T02:20:33;102597.00;;;4.60
15845;BMP180;50807;52.436;13.346;2023-03-01T02:21:21;102595.00;;;4.60
15845;BMP180;50807;52.436;13.346;2023-03-01T02:22:05;102590.00;;;4.50
15845;BMP180;50807;52.436;13.346;2023-03-01T02:22:38;102567.00;;;4.60
15845;BMP180;50807;52.436;13.346;2023-03-01T02:23:09;102596.00;;;4.60
15845;BMP180;50807;52.436;13.346;2023-03-01T02:23:40;102604.00;;;4.70
15845;BMP180;50807;52.436;13.346;2023-03-01T02:24:28;102590.00;;;4.60
15845;BMP180;50807;52.436;13.346;2023-03-01T02:26:15;102587.00;;;4.40
15845;BMP180;50807;52.436;13.346;2023-03-01T02:26:51;102587.00;;;4.50
15845;BMP180;50807;52.436;13.346;2023-03-01T02:27:33;102576.00;;;4.50
15845;BMP180;50807;52.436;13.346;2023-03-01T02:28:20;102591.00;;;4.50
15845;BMP180;50807;52.436;13.346;2023-03-01T02:28:51;102596.00;;;4.50
15845;BMP180;50807;52.436;13.346;2023-03-01T02:29:23;102585.00;;;4.60
15845;BMP180;50807;52.436;13.346;2023-03-01T02:29:55;102594.00;;;4.60
15845;BMP180;50807;52.436;13.346;2023-03-01T02:30:28;102579.00;;;4.60
15845;BMP180;50807;52.436;13.346;2023-03-01T02:31:01;102600.00;;;4.60
15845;BMP180;50807;52.436;13.346;2023-03-01T02:31:54;102589.00;;;4.50
15845;BMP180;50807;52.436;13.346;2023-03-01T02:32:27;102599.00;;;4.50
15845;BMP180;50807;52.436;13.346;2023-03-01T02:33:00;102591.00;;;4.50
15845;BMP180;50807;52.436;13.346;2023-03-01T02:33:36;102564.00;;;4.50
15845;BMP180;50807;52.436;13.346;2023-03-01T02:34:12;102590.00;;;4.50
15845;BMP180;50807;52.436;13.346;2023-03-01T02:34:44;102572.00;;;4.50
15845;BMP180;50807;52.436;13.346;2023-03-01T02:35:17;102595.00;;;4.60
15845;BMP180;50807;52.436;13.346;2023-03-01T02:35:49;102592.00;;;4.60
15845;BMP180;50807;52.436;13.346;2023-03-01T02:36:25;102602.00;;;4.50
15845;BMP180;50807;52.436;13.346;2023-03-01T02:37:01;102588.00;;;4.50
15845;BMP180;50807;52.436;13.346;2023-03-01T02:37:35;102581.00;;;4.50
15845;BMP180;50807;52.436;13.346;2023-03-01T02:38:08;102588.00;;;4.50
15845;BMP180;50807;52.436;13.346;2023-03-01T02:38:40;102587.00;;;4.50
15845;BMP180;50807;52.436;13.346;2023-03-01T02:39:17;102588.00;;;4.50
15845;BMP180;50807;52.436;13.346;2023-03-01T02:39:55;102599.00;;;4.50
15845;BMP180;50807;52.436;13.346;2023-03-01T02:40:29;102593.00;;;4.50
15845;BMP180;50807;52.436;13.346;2023-03-01T02:41:04;102603.00;;;4.50
15845;BMP180;50807;52.436;13.346;2023-03-01T02:41:37;102580.00;;;4.50
15845;BMP180;50807;52.436;13.346;2023-03-01T02:42:14;102588.00;;;4.50
15845;BMP180;50807;52.436;13.346;2023-03-01T02:42:53;102601.00;;;4.50
15845;BMP180;50807;52.436;13.346;2023-03-01T02:43:31;102596.00;;;4.50
15845;BMP180;50807;52.436;13.346;2023-03-01T02:44:02;102598.00;;;4.50
15845;BMP180;50807;52.436;13.346;2023-03-01T02:44:34;102597.00;;;4.50
15845;BMP180;50807;52.436;13.346;2023-03-01T02:45:06;102591.00;;;4.50
15845;BMP180;50807;52.436;13.346;2023-03-01T02:45:37;102596.00;;;4.50
15845;BMP180;50807;52.436;13.346;2023-03-01T02:46:16;102605.00;;;4.50
15845;BMP180;50807;52.436;13.346;2023-03-01T02:46:50;102604.00;;;4.50
15845;BMP180;50807;52.436;13.346;2023-03-01T02:47:22;102606.00;;;4.50
15845;BMP180;50807;52.436;13.346;2023-03-01T02:47:54;102607.00;;;4.50
15845;BMP180;50807;52.436;13.346;2023-03-01T02:48:25;102605.00;;;4.50
15845;BMP180;50807;52.436;13.346;2023-03-01T02:48:58;102596.00;;;4.50
15845;BMP180;50807;52.436;13.346;2023-03-01T02:49:34;102593.00;;;4.50
15845;BMP180;50807;52.436;13.346;2023-03-01T02:50:19;102598.00;;;4.40
15845;BMP180;50807;52.436;13.346;2023-03-01T02:51:04;102608.00;;;4.30
15845;BMP180;50807;52.436;13.346;2023-03-01T02:51:52;102612.00;;;4.20
15845;BMP180;50807;52.436;13.346;2023-03-01T02:52:40;102605.00;;;4.20
15845;BMP180;50807;52.436;13.346;2023-03-01T02:53:21;102611.00;;;4.20
15845;BMP180;50807;52.436;13.346;2023-03-01T02:54:05;102601.00;;;4.20
15845;BMP180;50807;52.436;13.346;2023-03-01T02:54:42;102595.00;;;4.20
15845;BMP180;50807;52.436;13.346;2023-03-01T02:55:17;102599.00;;;4.20
15845;BMP180;50807;52.436;13.346;2023-03-01T02:55:48;102602.00;;;4.30
15845;BMP180;50807;52.436;13.346;2023-03-01T02:56:20;102595.00;;;4.30
15845;BMP180;50807;52.436;13.346;2023-03-01T02:56:52;102604.00;;;4.30
15845;BMP180;50807;52.436;13.346;2023-03-01T02:57:24;102599.00;;;4.30
15845;BMP180;50807;52.436;13.346;2023-03-01T02:58:02;102606.00;;;4.30
15845;BMP180;50807;52.436;13.346;2023-03-01T02:58:35;102593.00;;;4.30
15845;BMP180;50807;52.436;13.346;2023-03-01T02:59:17;102598.00;;;4.30
15845;BMP180;50807;52.436;13.346;2023-03-01T02:59:50;102593.00;;;4.30
15845;BMP180;50807;52.436;13.346;2023-03-01T03:00:30;102591.00;;;4.30
15845;BMP180;50807;52.436;13.346;2023-03-01T03:01:03;102585.00;;;4.30
15845;BMP180;50807;52.436;13.346;2023-03-01T03:01:35;102588.00;;;4.30
15845;BMP180;50807;52.436;13.346;2023-03-01T03:02:19;102582.00;;;4.20
15845;BMP180;50807;52.436;13.346;2023-03-01T03:02:52;102586.00;;;4.30
15845;BMP180;50807;52.436;13.346;2023-03-01T03:03:24;102585.00;;;4.30
15845;BMP180;50807;52.436;13.346;2023-03-01T03:03:56;102582.00;;;4.30
15845;BMP180;50807;52.436;13.346;2023-03-01T03:04:26;102575.00;;;4.30
15845;BMP180;50807;52.436;13.346;2023-03-01T03:04:57;102582.00;;;4.30
15845;BMP180;50807;52.436;13.346;2023-03-01T03:05:31;102580.00;;;4.30
15845;BMP180;50807;52.436;13.346;2023-03-01T03:06:03;102583.00;;;4.30
15845;BMP180;50807;52.436;13.346;2023-03-01T03:06:36;102585.00;;;4.30
15845;BMP180;50807;52.436;13.346;2023-03-01T03:07:07;102591.00;;;4.30
15845;BMP180;50807;52.436;13.346;2023-03-01T03:07:41;102594.00;;;4.30
15845;BMP180;50807;52.436;13.346;2023-03-01T03:08:12;102584.00;;;4.30
15845;BMP180;50807;52.436;13.346;2023-03-01T03:08:44;102590.00;;;4.30
15845;BMP180;50807;52.436;13.346;2023-03-01T03:09:17;102583.00;;;4.30
15845;BMP180;50807;52.436;13.346;2023-03-01T03:09:48;102586.00;;;4.30
15845;BMP180;50807;52.436;13.346;2023-03-01T03:10:22;102578.00;;;4.30
15845;BMP180;50807;52.436;13.346;2023-03-01T03:10:53;102573.00;;;4.30